createdAt,value
2018-11-10T00:01:43.728Z,26.17
2018-11-10T00:04:11.142Z,24.40
2018-11-10T00:06:38.379Z,25.57
2018-11-10T00:09:05.844Z,25.70
2018-11-10T00:11:33.079Z,25.23
2018-11-10T00:14:00.668Z,24.70
2018-11-10T00:16:27.951Z,25.68
2018-11-10T00:18:55.186Z,25.52
2018-11-10T00:21:22.435Z,25.68
2018-11-10T00:23:49.722Z,25.60
2018-11-10T00:26:16.967Z,24.92
2018-11-10T00:28:44.210Z,25.37
2018-11-10T00:31:11.803Z,25.82
2018-11-10T00:33:39.043Z,25.27
2018-11-10T00:36:06.286Z,24.47
2018-11-10T00:38:33.549Z,26.23
2018-11-10T00:41:00.816Z,25.90
2018-11-10T00:43:28.136Z,25.88
2018-11-10T00:45:55.410Z,25.17
2018-11-10T00:48:22.667Z,25.50
2018-11-10T00:50:49.911Z,25.35
2018-11-10T00:53:17.164Z,25.77
2018-11-10T00:55:44.554Z,25.25
2018-11-10T00:58:11.857Z,25.55
2018-11-10T01:00:39.091Z,25.02
2018-11-10T01:03:06.339Z,26.02
2018-11-10T01:05:33.637Z,25.45
2018-11-10T01:08:00.863Z,25.60
2018-11-10T01:10:28.092Z,25.70
2018-11-10T01:12:55.371Z,26.48
2018-11-10T01:15:22.609Z,25.57
2018-11-10T01:17:49.848Z,26.20
2018-11-10T01:20:17.083Z,26.85
2018-11-10T01:22:44.343Z,26.00
2018-11-10T01:25:11.684Z,26.02
2018-11-10T01:27:38.991Z,26.15
2018-11-10T01:30:11.529Z,25.17
2018-11-10T01:32:38.795Z,25.68
2018-11-10T01:35:06.109Z,26.10
2018-11-10T01:37:33.396Z,26.55
2018-11-10T01:40:00.657Z,25.48
2018-11-10T01:42:27.911Z,26.10
2018-11-10T01:44:55.186Z,26.80
2018-11-10T01:47:22.456Z,25.08
2018-11-10T01:49:49.819Z,25.17
2018-11-10T01:52:17.120Z,26.45
2018-11-10T01:54:44.705Z,25.82
2018-11-10T01:57:12.112Z,27.00
2018-11-10T01:59:39.375Z,25.65
2018-11-10T02:02:06.705Z,25.45
2018-11-10T02:04:33.983Z,26.90
2018-11-10T02:07:01.378Z,26.62
2018-11-10T02:09:28.724Z,26.65
2018-11-10T02:11:56.088Z,25.82
2018-11-10T02:14:23.344Z,25.62
2018-11-10T02:16:50.692Z,25.20
2018-11-10T02:19:18.125Z,25.65
2018-11-10T02:21:45.395Z,25.25
2018-11-10T02:24:12.671Z,25.27
2018-11-10T02:26:39.997Z,25.37
2018-11-10T02:29:07.283Z,24.30
2018-11-10T02:31:34.644Z,25.05
2018-11-10T02:34:01.951Z,25.12
2018-11-10T02:36:29.275Z,25.97
2018-11-10T02:38:56.600Z,26.05
2018-11-10T02:41:23.990Z,24.63
2018-11-10T02:43:51.612Z,24.15
2018-11-10T02:46:18.878Z,24.92
2018-11-10T02:48:46.119Z,25.10
2018-11-10T02:51:13.352Z,25.13
2018-11-10T02:53:40.676Z,25.43
2018-11-10T02:56:08.048Z,26.60
2018-11-10T02:58:35.318Z,26.30
2018-11-10T03:01:02.654Z,25.92
2018-11-10T03:03:29.924Z,25.95
2018-11-10T03:05:57.280Z,27.10
2018-11-10T03:08:24.781Z,26.75
2018-11-10T03:10:52.150Z,27.10
2018-11-10T03:13:19.468Z,26.35
2018-11-10T03:15:47.128Z,26.70
2018-11-10T03:18:14.346Z,26.57
2018-11-10T03:20:41.735Z,27.32
2018-11-10T03:23:08.987Z,25.82
2018-11-10T03:25:36.285Z,26.73
2018-11-10T03:28:03.629Z,27.52
2018-11-10T03:30:30.923Z,28.12
2018-11-10T03:32:58.191Z,27.73
2018-11-10T03:35:25.431Z,28.17
2018-11-10T03:37:52.700Z,27.35
2018-11-10T03:40:19.963Z,28.05
2018-11-10T03:42:47.199Z,28.17
2018-11-10T03:45:14.448Z,26.80
2018-11-10T03:47:41.708Z,28.47
2018-11-10T03:50:09.792Z,28.30
2018-11-10T03:52:37.059Z,27.42
2018-11-10T03:55:05.423Z,29.90
2018-11-10T03:57:32.705Z,30.50
2018-11-10T03:59:59.945Z,30.15
2018-11-10T04:02:27.188Z,31.35
2018-11-10T04:04:54.679Z,30.40
2018-11-10T04:07:21.960Z,32.60
2018-11-10T04:09:49.264Z,31.48
2018-11-10T04:12:16.619Z,33.02
2018-11-10T04:14:43.911Z,33.45
2018-11-10T04:17:11.188Z,32.10
2018-11-10T04:19:38.508Z,33.95
2018-11-10T04:22:05.961Z,33.92
2018-11-10T04:24:33.236Z,33.02
2018-11-10T04:27:00.500Z,32.95
2018-11-10T04:29:27.764Z,34.25
2018-11-10T04:31:55.041Z,35.03
2018-11-10T04:34:22.360Z,33.55
2018-11-10T04:36:49.624Z,33.25
2018-11-10T04:39:16.925Z,33.75
2018-11-10T04:41:44.220Z,34.15
2018-11-10T04:44:11.632Z,35.38
2018-11-10T04:46:38.904Z,35.52
2018-11-10T04:49:06.169Z,34.83
2018-11-10T04:51:33.457Z,35.92
2018-11-10T04:54:00.740Z,33.70
2018-11-10T04:56:28.021Z,34.78
2018-11-10T04:58:55.300Z,33.25
2018-11-10T05:01:22.598Z,34.13
2018-11-10T05:03:49.876Z,34.95
2018-11-10T05:06:17.185Z,34.00
2018-11-10T05:08:44.461Z,32.73
2018-11-10T05:11:11.740Z,32.63
2018-11-10T05:13:39.028Z,34.88
2018-11-10T05:16:06.333Z,34.20
2018-11-10T05:18:33.612Z,35.88
2018-11-10T05:21:00.911Z,35.75
2018-11-10T05:23:28.189Z,35.10
2018-11-10T05:25:55.498Z,34.78
2018-11-10T05:28:22.789Z,33.60
2018-11-10T05:30:50.132Z,33.70
2018-11-10T05:33:17.481Z,33.92
2018-11-10T05:35:44.780Z,31.95
2018-11-10T05:38:12.103Z,33.30
2018-11-10T05:40:39.486Z,33.83
2018-11-10T05:43:06.761Z,32.00
2018-11-10T05:45:34.061Z,34.10
2018-11-10T05:48:01.341Z,33.67
2018-11-10T05:50:28.676Z,34.83
2018-11-10T05:52:55.948Z,33.90
2018-11-10T05:55:23.268Z,34.05
2018-11-10T05:57:50.553Z,33.88
2018-11-10T06:00:18.964Z,34.80
2018-11-10T06:02:46.259Z,34.00
2018-11-10T06:05:13.628Z,34.43
2018-11-10T06:07:40.919Z,35.70
2018-11-10T06:10:09.469Z,35.35
2018-11-10T06:12:36.682Z,34.13
2018-11-10T06:15:05.031Z,34.13
2018-11-10T06:17:32.319Z,34.45
2018-11-10T06:19:59.597Z,32.50
2018-11-10T06:22:26.892Z,33.60
2018-11-10T06:24:55.052Z,31.87
2018-11-10T06:27:22.333Z,32.33
2018-11-10T06:29:49.707Z,30.72
2018-11-10T06:32:16.980Z,32.80
2018-11-10T06:34:44.264Z,33.30
2018-11-10T06:37:11.542Z,31.17
2018-11-10T06:39:38.835Z,31.73
2018-11-10T06:42:06.116Z,34.03
2018-11-10T06:44:33.404Z,33.40
2018-11-10T06:47:00.743Z,32.80
2018-11-10T06:49:27.988Z,32.17
2018-11-10T06:51:55.280Z,31.95
2018-11-10T06:54:22.573Z,32.60
2018-11-10T06:56:49.919Z,33.15
2018-11-10T06:59:17.205Z,31.97
2018-11-10T07:01:44.476Z,33.88
2018-11-10T07:04:11.944Z,34.55
2018-11-10T07:06:39.240Z,34.58
2018-11-10T07:09:07.963Z,35.63
2018-11-10T07:11:35.319Z,33.38
2018-11-10T07:14:02.773Z,33.85
2018-11-10T07:16:30.083Z,33.88
2018-11-10T07:18:57.407Z,32.63
2018-11-10T07:21:24.717Z,33.75
2018-11-10T07:23:52.052Z,34.00
2018-11-10T07:26:19.393Z,35.00
2018-11-10T07:28:46.768Z,34.18
2018-11-10T07:31:14.144Z,32.90
2018-11-10T07:33:41.525Z,33.95
2018-11-10T07:36:08.864Z,33.55
2018-11-10T07:38:36.156Z,35.38
2018-11-10T07:41:03.980Z,32.60
2018-11-10T07:43:31.319Z,33.50
2018-11-10T07:45:58.644Z,32.23
2018-11-10T07:48:26.080Z,31.40
2018-11-10T07:50:53.403Z,30.70
2018-11-10T07:53:21.260Z,31.27
2018-11-10T07:55:48.679Z,30.75
2018-11-10T07:58:15.972Z,30.05
2018-11-10T08:00:43.275Z,31.75
2018-11-10T08:03:10.620Z,31.17
2018-11-10T08:05:38.044Z,38.53
2018-11-10T08:08:05.564Z,31.68
2018-11-10T08:10:33.170Z,31.65
2018-11-10T08:13:00.512Z,31.30
2018-11-10T08:15:27.849Z,32.15
2018-11-10T08:17:55.208Z,32.30
2018-11-10T08:20:22.545Z,33.23
2018-11-10T08:22:49.896Z,33.55
2018-11-10T08:25:17.266Z,32.78
2018-11-10T08:27:44.676Z,32.15
2018-11-10T08:30:13.027Z,32.60
2018-11-10T08:32:40.670Z,32.67
2018-11-10T08:35:09.296Z,33.70
2018-11-10T08:37:36.624Z,32.28
2018-11-10T08:40:04.357Z,33.55
2018-11-10T08:42:31.689Z,33.08
2018-11-10T08:44:59.009Z,33.15
2018-11-10T08:47:26.319Z,32.15
2018-11-10T08:49:53.699Z,32.48
2018-11-10T08:52:21.076Z,30.43
2018-11-10T08:54:48.392Z,29.85
2018-11-10T08:57:15.701Z,30.20
2018-11-10T08:59:43.002Z,28.05
2018-11-10T09:02:10.307Z,27.40
2018-11-10T09:04:37.616Z,28.35
2018-11-10T09:07:05.045Z,27.05
2018-11-10T09:09:32.389Z,27.93
2018-11-10T09:11:59.733Z,26.37
2018-11-10T09:14:27.060Z,26.30
2018-11-10T09:16:54.365Z,25.82
2018-11-10T09:19:21.660Z,25.62
2018-11-10T09:21:49.073Z,25.02
2018-11-10T09:24:16.405Z,25.90
2018-11-10T09:26:44.510Z,25.52
2018-11-10T09:29:11.801Z,26.77
2018-11-10T09:31:39.113Z,25.77
2018-11-10T09:34:07.969Z,25.45
2018-11-10T09:36:35.641Z,25.27
2018-11-10T09:39:03.779Z,24.80
2018-11-10T09:41:31.056Z,24.30
2018-11-10T09:43:58.354Z,26.12
2018-11-10T09:46:25.651Z,24.47
2018-11-10T09:48:52.948Z,26.82
2018-11-10T09:51:20.260Z,24.12
2018-11-10T09:53:47.616Z,24.85
2018-11-10T09:56:14.932Z,24.32
2018-11-10T09:58:42.228Z,24.65
2018-11-10T10:01:09.658Z,24.07
2018-11-10T10:03:37.100Z,25.62
2018-11-10T10:06:04.673Z,25.65
2018-11-10T10:08:32.216Z,25.15
2018-11-10T10:10:59.516Z,24.57
2018-11-10T10:13:26.820Z,25.55
2018-11-10T10:15:54.135Z,25.25
2018-11-10T10:18:21.432Z,25.35
2018-11-10T10:20:48.728Z,25.08
2018-11-10T10:23:16.200Z,24.87
2018-11-10T10:25:43.500Z,24.07
2018-11-10T10:28:10.842Z,24.30
2018-11-10T10:30:38.121Z,23.65
2018-11-10T10:33:05.460Z,23.95
2018-11-10T10:35:32.978Z,25.43
2018-11-10T10:38:00.045Z,23.90
2018-11-10T10:40:27.574Z,24.85
2018-11-10T10:42:54.868Z,24.77
2018-11-10T10:45:23.064Z,24.45
2018-11-10T10:47:50.355Z,25.02
2018-11-10T10:50:18.824Z,23.02
2018-11-10T10:52:46.106Z,25.30
2018-11-10T10:55:20.826Z,23.50
2018-11-10T10:57:50.025Z,28.05
2018-11-10T11:00:23.038Z,24.37
2018-11-10T11:02:57.768Z,25.12
2018-11-10T11:05:30.590Z,25.65
2018-11-10T11:07:57.912Z,26.30
2018-11-10T11:10:25.207Z,26.42
2018-11-10T11:12:52.495Z,25.10
2018-11-10T11:15:20.322Z,25.77
2018-11-10T11:17:47.520Z,25.48
2018-11-10T11:20:14.853Z,26.30
2018-11-10T11:22:42.477Z,24.47
2018-11-10T11:25:09.772Z,25.43
2018-11-10T11:27:37.460Z,27.48
2018-11-10T11:30:05.634Z,27.22
2018-11-10T11:32:33.052Z,26.35
2018-11-10T11:35:00.403Z,25.30
2018-11-10T11:37:27.648Z,25.48
2018-11-10T11:39:54.979Z,25.72
2018-11-10T11:42:22.296Z,24.82
2018-11-10T11:44:49.569Z,24.70
2018-11-10T11:47:17.079Z,25.25
2018-11-10T11:49:44.427Z,24.50
2018-11-10T11:52:11.709Z,24.30
2018-11-10T11:54:39.344Z,25.40
2018-11-10T11:57:06.660Z,23.83
2018-11-10T11:59:33.961Z,24.67
2018-11-10T12:02:01.280Z,23.95
2018-11-10T12:04:28.601Z,23.52
2018-11-10T12:06:55.873Z,24.23
2018-11-10T12:09:23.177Z,24.23
2018-11-10T12:11:50.464Z,24.63
2018-11-10T12:14:17.780Z,24.65
2018-11-10T12:16:45.117Z,28.80
2018-11-10T12:19:12.494Z,23.35
2018-11-10T12:21:39.744Z,23.25
2018-11-10T12:24:07.077Z,23.30
2018-11-10T12:26:34.423Z,24.45
2018-11-10T12:29:01.704Z,25.12
2018-11-10T12:31:29.058Z,24.20
2018-11-10T12:33:56.284Z,24.23
2018-11-10T12:36:23.588Z,24.27
2018-11-10T12:38:51.006Z,23.75
2018-11-10T12:41:18.237Z,24.00
2018-11-10T12:43:45.531Z,24.60
2018-11-10T12:46:12.827Z,24.92
2018-11-10T12:48:40.112Z,24.55
2018-11-10T12:51:07.436Z,23.65
2018-11-10T12:53:34.720Z,23.98
2018-11-10T12:56:02.093Z,23.92
2018-11-10T12:58:29.388Z,23.65
2018-11-10T13:00:56.805Z,22.65
2018-11-10T13:03:24.132Z,23.77
2018-11-10T13:05:51.801Z,22.95
2018-11-10T13:08:19.134Z,23.67
2018-11-10T13:10:46.445Z,22.90
2018-11-10T13:13:13.736Z,22.35
2018-11-10T13:15:41.020Z,22.10
2018-11-10T13:18:08.405Z,23.20
2018-11-10T13:20:35.672Z,22.07
2018-11-10T13:23:03.029Z,23.22
2018-11-10T13:25:30.327Z,25.95
2018-11-10T13:27:57.645Z,22.82
2018-11-10T13:30:24.947Z,23.15
2018-11-10T13:32:52.248Z,22.87
2018-11-10T13:35:19.560Z,22.65
2018-11-10T13:37:47.016Z,22.95
2018-11-10T13:40:14.327Z,21.97
2018-11-10T13:42:41.938Z,25.15
2018-11-10T13:45:10.534Z,22.73
2018-11-10T13:47:37.828Z,22.17
2018-11-10T13:50:07.099Z,22.50
2018-11-10T13:52:34.740Z,76.00
2018-11-10T13:55:01.712Z,24.10
2018-11-10T13:57:29.336Z,22.07
2018-11-10T13:59:56.640Z,22.42
2018-11-10T14:02:24.079Z,22.05
2018-11-10T14:04:51.372Z,22.45
2018-11-10T14:07:18.665Z,21.93
2018-11-10T14:09:45.952Z,21.60
2018-11-10T14:12:13.264Z,22.62
2018-11-10T14:14:40.564Z,22.30
2018-11-10T14:17:07.881Z,21.25
2018-11-10T14:19:35.240Z,22.10
2018-11-10T14:22:02.629Z,21.97
2018-11-10T14:24:29.913Z,21.85
2018-11-10T14:26:57.183Z,22.42
2018-11-10T14:29:24.465Z,22.73
2018-11-10T14:31:51.752Z,22.62
2018-11-10T14:34:19.088Z,21.57
2018-11-10T14:36:46.374Z,22.20
2018-11-10T14:39:13.728Z,23.25
2018-11-10T14:41:41.028Z,22.17
2018-11-10T14:44:08.924Z,22.45
2018-11-10T14:46:36.687Z,22.58
2018-11-10T14:49:04.553Z,22.73
2018-11-10T14:51:31.860Z,22.82
2018-11-10T14:53:59.191Z,22.77
2018-11-10T14:56:26.496Z,23.65
2018-11-10T14:58:53.965Z,22.87
2018-11-10T15:01:21.284Z,23.15
2018-11-10T15:03:48.596Z,23.10
2018-11-10T15:06:15.912Z,24.25
2018-11-10T15:08:43.264Z,23.92
2018-11-10T15:11:10.571Z,23.30
2018-11-10T15:13:37.945Z,23.70
2018-11-10T15:16:05.617Z,23.10
2018-11-10T15:18:32.909Z,23.07
2018-11-10T15:21:00.215Z,23.62
2018-11-10T15:23:27.548Z,23.75
2018-11-10T15:25:54.852Z,23.47
2018-11-10T15:28:22.129Z,24.00
2018-11-10T15:30:49.412Z,23.20
2018-11-10T15:33:16.723Z,23.83
2018-11-10T15:35:43.995Z,23.83
2018-11-10T15:38:11.291Z,23.20
2018-11-10T15:40:38.591Z,22.82
2018-11-10T15:43:05.936Z,22.95
2018-11-10T15:45:33.216Z,23.35
2018-11-10T15:48:00.503Z,22.87
2018-11-10T15:50:27.920Z,22.75
2018-11-10T15:52:55.160Z,23.62
2018-11-10T15:55:22.464Z,23.73
2018-11-10T15:57:49.736Z,27.73
2018-11-10T16:00:18.231Z,21.85
2018-11-10T16:02:45.598Z,22.62
2018-11-10T16:05:13.529Z,22.65
2018-11-10T16:07:40.813Z,20.68
2018-11-10T16:10:08.358Z,21.60
2018-11-10T16:12:35.872Z,21.33
2018-11-10T16:15:03.420Z,21.70
2018-11-10T16:17:30.836Z,21.27
2018-11-10T16:19:58.097Z,21.95
2018-11-10T16:22:25.372Z,21.23
2018-11-10T16:24:52.638Z,22.10
2018-11-10T16:27:19.920Z,21.77
2018-11-10T16:29:47.193Z,22.67
2018-11-10T16:32:14.473Z,22.02
2018-11-10T16:34:41.806Z,21.95
2018-11-10T16:37:09.177Z,22.73
2018-11-10T16:39:36.459Z,22.30
2018-11-10T16:42:04.252Z,21.48
2018-11-10T16:44:31.519Z,21.90
2018-11-10T16:46:58.824Z,22.60
2018-11-10T16:49:26.092Z,22.13
2018-11-10T16:51:53.395Z,21.00
2018-11-10T16:54:20.725Z,20.60
2018-11-10T16:56:48.004Z,21.42
2018-11-10T16:59:15.522Z,22.98
2018-11-10T17:01:42.732Z,20.85
2018-11-10T17:04:10.091Z,22.22
2018-11-10T17:06:37.403Z,21.33
2018-11-10T17:09:07.135Z,21.25
2018-11-10T17:11:34.425Z,21.55
2018-11-10T17:14:01.725Z,21.80
2018-11-10T17:16:28.992Z,21.30
2018-11-10T17:18:56.269Z,22.42
2018-11-10T17:21:23.700Z,21.85
2018-11-10T17:23:50.963Z,21.65
2018-11-10T17:26:18.308Z,22.02
2018-11-10T17:28:45.600Z,20.85
2018-11-10T17:31:12.868Z,21.33
2018-11-10T17:33:40.217Z,21.15
2018-11-10T17:36:07.474Z,19.73
2018-11-10T17:38:34.771Z,21.52
2018-11-10T17:41:02.060Z,20.60
2018-11-10T17:43:29.347Z,21.68
2018-11-10T17:45:56.639Z,21.75
2018-11-10T17:48:23.982Z,20.72
2018-11-10T17:50:51.245Z,21.45
2018-11-10T17:53:18.520Z,20.97
2018-11-10T17:55:45.868Z,21.07
2018-11-10T17:58:13.176Z,24.27
2018-11-10T18:00:40.436Z,24.67
2018-11-10T18:03:07.749Z,22.80
2018-11-10T18:05:35.076Z,22.02
2018-11-10T18:08:02.404Z,21.68
2018-11-10T18:10:29.707Z,21.65
2018-11-10T18:12:56.997Z,21.80
2018-11-10T18:15:24.280Z,22.52
2018-11-10T18:17:51.556Z,22.07
2018-11-10T18:20:18.872Z,22.22
2018-11-10T18:22:46.381Z,21.97
2018-11-10T18:25:13.796Z,22.02
2018-11-10T18:27:41.099Z,22.37
2018-11-10T18:30:10.076Z,22.82
2018-11-10T18:32:37.446Z,23.40
2018-11-10T18:35:05.588Z,22.05
2018-11-10T18:37:32.925Z,22.75
2018-11-10T18:40:00.261Z,21.33
2018-11-10T18:42:27.511Z,21.68
2018-11-10T18:44:54.785Z,22.70
2018-11-10T18:47:22.088Z,22.43
2018-11-10T18:49:49.403Z,22.42
2018-11-10T18:52:16.708Z,22.50
2018-11-10T18:54:43.877Z,22.55
2018-11-10T18:57:11.220Z,21.97
2018-11-10T18:59:38.402Z,22.65
2018-11-10T19:02:05.785Z,21.80
2018-11-10T19:04:33.008Z,23.00
2018-11-10T19:07:00.552Z,22.07
2018-11-10T19:09:27.837Z,23.95
2018-11-10T19:11:55.100Z,23.15
2018-11-10T19:14:22.371Z,22.60
2018-11-10T19:16:49.824Z,28.62
2018-11-10T19:19:17.211Z,26.25
2018-11-10T19:21:44.514Z,25.32
2018-11-10T19:24:11.807Z,22.73
2018-11-10T19:26:39.317Z,28.57
2018-11-10T19:29:06.718Z,23.43
2018-11-10T19:31:34.020Z,26.00
2018-11-10T19:34:01.501Z,24.65
2018-11-10T19:36:28.796Z,24.32
2018-11-10T19:38:56.203Z,22.75
2018-11-10T19:41:23.481Z,27.03
2018-11-10T19:43:54.103Z,22.85
2018-11-10T19:46:24.534Z,21.75
2018-11-10T19:48:51.849Z,23.70
2018-11-10T19:51:19.380Z,24.18
2018-11-10T19:53:46.457Z,22.48
2018-11-10T19:56:14.534Z,21.57
2018-11-10T19:58:41.802Z,23.20
2018-11-10T20:01:09.849Z,22.43
2018-11-10T20:03:37.332Z,22.13
2018-11-10T20:06:04.746Z,22.00
2018-11-10T20:08:32.324Z,21.80
2018-11-10T20:10:59.662Z,22.32
2018-11-10T20:13:26.923Z,23.07
2018-11-10T20:15:54.220Z,22.50
2018-11-10T20:18:21.675Z,22.67
2018-11-10T20:20:49.197Z,22.17
2018-11-10T20:23:16.639Z,22.35
2018-11-10T20:25:43.914Z,23.87
2018-11-10T20:28:11.816Z,24.07
2018-11-10T20:30:39.236Z,22.32
2018-11-10T20:33:06.544Z,27.90
2018-11-10T20:35:33.815Z,35.27
2018-11-10T20:38:01.155Z,28.83
2018-11-10T20:40:28.500Z,25.00
2018-11-10T20:42:55.830Z,22.80
2018-11-10T20:45:23.153Z,25.30
2018-11-10T20:47:50.498Z,22.73
2018-11-10T20:50:18.231Z,22.50
2018-11-10T20:52:45.506Z,23.33
2018-11-10T20:55:13.308Z,22.22
2018-11-10T20:57:40.651Z,23.40
2018-11-10T21:00:13.151Z,23.40
2018-11-10T21:02:42.360Z,21.27
2018-11-10T21:05:11.047Z,23.38
2018-11-10T21:07:38.412Z,22.67
2018-11-10T21:10:07.656Z,22.40
2018-11-10T21:12:35.095Z,21.97
2018-11-10T21:15:02.447Z,22.37
2018-11-10T21:17:29.723Z,22.77
2018-11-10T21:19:57.020Z,23.83
2018-11-10T21:22:24.276Z,23.38
2018-11-10T21:24:51.667Z,27.80
2018-11-10T21:27:19.028Z,22.07
2018-11-10T21:29:46.505Z,23.38
2018-11-10T21:32:13.970Z,21.55
2018-11-10T21:34:41.232Z,22.02
2018-11-10T21:37:08.534Z,21.20
2018-11-10T21:39:35.796Z,21.90
2018-11-10T21:42:03.060Z,21.63
2018-11-10T21:44:30.419Z,22.20
2018-11-10T21:46:57.690Z,21.75
2018-11-10T21:49:25.161Z,21.25
2018-11-10T21:51:52.309Z,21.95
2018-11-10T21:54:19.634Z,22.37
2018-11-10T21:56:46.848Z,21.77
2018-11-10T21:59:14.112Z,22.42
2018-11-10T22:01:41.339Z,23.10
2018-11-10T22:04:08.575Z,21.90
2018-11-10T22:06:35.793Z,22.50
2018-11-10T22:09:03.992Z,25.03
2018-11-10T22:11:31.154Z,22.80
2018-11-10T22:13:58.380Z,21.33
2018-11-10T22:16:25.631Z,22.00
2018-11-10T22:18:52.855Z,22.98
2018-11-10T22:21:20.087Z,23.10
2018-11-10T22:23:47.309Z,22.57
2018-11-10T22:26:14.543Z,22.40
2018-11-10T22:28:41.777Z,26.63
2018-11-10T22:31:09.060Z,22.17
2018-11-10T22:33:36.237Z,22.40
2018-11-10T22:36:03.494Z,23.95
2018-11-10T22:38:31.298Z,22.83
2018-11-10T22:40:58.502Z,23.98
2018-11-10T22:43:25.747Z,22.50
2018-11-10T22:45:52.975Z,24.37
2018-11-10T22:48:20.232Z,22.93
2018-11-10T22:50:47.476Z,23.80
2018-11-10T22:53:14.708Z,23.20
2018-11-10T22:55:41.924Z,23.05
2018-11-10T22:58:09.142Z,22.60
2018-11-10T23:00:41.267Z,22.53
2018-11-10T23:03:08.468Z,22.75
2018-11-10T23:05:35.702Z,22.13
2018-11-10T23:08:02.957Z,23.70
2018-11-10T23:10:30.195Z,22.90
2018-11-10T23:12:57.415Z,22.60
2018-11-10T23:15:24.673Z,23.47
2018-11-10T23:17:51.903Z,22.37
2018-11-10T23:20:19.567Z,22.83
2018-11-10T23:22:46.826Z,21.67
2018-11-10T23:25:15.468Z,22.23
2018-11-10T23:27:42.737Z,21.90
2018-11-10T23:30:13.604Z,22.52
2018-11-10T23:32:41.112Z,22.63
2018-11-10T23:35:08.640Z,22.30
2018-11-10T23:37:35.861Z,23.20
2018-11-10T23:40:03.364Z,23.03
2018-11-10T23:42:30.585Z,22.77
2018-11-10T23:44:57.794Z,22.37
2018-11-10T23:47:25.076Z,22.83
2018-11-10T23:49:52.291Z,23.77
2018-11-10T23:52:19.535Z,23.02
2018-11-10T23:54:46.824Z,22.95
2018-11-10T23:57:14.040Z,23.27
2018-11-10T23:59:41.281Z,23.07
